Time;durP1;ratioP1;P1;durP2;ratioP2;P2;SDS_P1;SDS_P2;PMS_P1;PMS_P2;Temp;Humidity;BMP_temperature;BMP_pressure;BME280_temperature;BME280_humidity;BME280_pressure;Samples;Min_cycle;Max_cycle;Signal;HPM_P1;HPM_P2
2023/04/21 00:00:46;;;;;;;8.15;6.78;;;;;;;13.70;93.59;99392.72;5031257;28;20045;-68
2023/04/21 00:03:11;;;;;;;9.85;7.60;;;;;;;13.72;93.28;99390.69;5032151;28;20037;-68
2023/04/21 00:05:41;;;;;;;9.77;7.53;;;;;;;13.68;93.31;99389.44;5030887;28;20099;-68
2023/04/21 00:08:07;;;;;;;9.70;7.88;;;;;;;13.73;94.04;99388.88;5035970;28;20041;-68
2023/04/21 00:10:32;;;;;;;10.25;7.88;;;;;;;13.81;93.53;99383.41;5030841;28;20025;-68
2023/04/21 00:12:58;;;;;;;11.45;8.23;;;;;;;13.86;92.76;99383.66;5031315;28;20044;-68
2023/04/21 00:15:24;;;;;;;10.30;7.75;;;;;;;13.86;92.45;99380.16;5030237;28;20042;-68
2023/04/21 00:17:49;;;;;;;12.77;8.05;;;;;;;13.81;92.50;99375.41;5031368;28;20243;-68
2023/04/21 00:20:15;;;;;;;12.70;7.60;;;;;;;13.86;92.22;99374.84;5030739;28;20042;-68
2023/04/21 00:22:41;;;;;;;11.32;8.40;;;;;;;13.82;92.62;99381.56;5030505;28;20029;-68
2023/04/21 00:25:06;;;;;;;9.75;7.35;;;;;;;13.90;92.59;99376.09;5032811;28;20083;-68
2023/04/21 00:27:32;;;;;;;10.32;8.35;;;;;;;14.03;89.89;99379.69;5030823;28;20221;-66
2023/04/21 00:29:57;;;;;;;10.85;8.50;;;;;;;14.05;89.20;99375.00;5031955;28;20041;-66
2023/04/21 00:32:23;;;;;;;9.93;8.05;;;;;;;14.07;89.76;99375.63;5031024;28;20079;-66
2023/04/21 00:34:48;;;;;;;10.98;8.10;;;;;;;14.07;90.53;99370.31;5032505;28;20045;-65
2023/04/21 00:37:14;;;;;;;12.02;8.38;;;;;;;14.10;91.29;99371.75;5030701;28;20240;-68
2023/04/21 00:39:39;;;;;;;11.35;8.38;;;;;;;14.17;90.40;99374.47;5031852;28;20068;-65
2023/04/21 00:42:05;;;;;;;10.73;8.20;;;;;;;14.14;89.57;99372.19;5030218;28;20048;-68
2023/04/21 00:44:31;;;;;;;11.63;8.35;;;;;;;13.98;89.01;99357.34;5030985;28;20042;-68
2023/04/21 00:46:56;;;;;;;9.63;7.32;;;;;;;14.18;88.54;99373.44;5031236;28;20327;-67
2023/04/21 00:49:24;;;;;;;9.98;7.70;;;;;;;14.17;85.70;99374.47;5031376;28;20255;-68
2023/04/21 00:51:51;;;;;;;12.20;8.20;;;;;;;14.09;86.20;99362.13;5031143;28;20219;-66
2023/04/21 00:54:17;;;;;;;10.20;8.15;;;;;;;14.06;86.48;99367.84;5029688;28;20045;-67
2023/04/21 00:56:43;;;;;;;14.80;9.50;;;;;;;14.04;86.18;99362.72;5031116;28;20056;-68
2023/04/21 00:59:08;;;;;;;13.65;10.05;;;;;;;13.92;86.68;99360.78;5033602;28;20148;-65
2023/04/21 01:01:35;;;;;;;17.88;11.05;;;;;;;13.79;87.98;99366.81;5035139;28;20319;-68
2023/04/21 01:04:03;;;;;;;20.88;12.95;;;;;;;13.72;89.37;99371.25;5032497;28;20235;-68
2023/04/21 01:06:31;;;;;;;20.95;12.23;;;;;;;13.33;91.03;99363.69;5033906;28;20052;-68
2023/04/21 01:08:57;;;;;;;14.77;9.95;;;;;;;13.56;90.62;99363.53;5033950;28;20033;-68
2023/04/21 01:11:22;;;;;;;14.30;9.10;;;;;;;13.64;89.35;99353.59;5032191;28;20036;-68
2023/04/21 01:13:52;;;;;;;17.88;9.25;;;;;;;13.57;89.92;99352.69;5034832;28;20371;-68
2023/04/21 01:16:17;;;;;;;12.00;8.63;;;;;;;13.38;90.51;99356.78;5033664;28;20053;-68
2023/04/21 01:18:44;;;;;;;10.73;7.55;;;;;;;13.35;90.72;99356.34;5035219;28;20065;-68
2023/04/21 01:21:10;;;;;;;15.25;8.88;;;;;;;13.36;91.14;99356.16;5033980;28;20034;-68
2023/04/21 01:23:36;;;;;;;12.52;8.00;;;;;;;13.56;89.84;99360.88;5035355;28;20059;-68
2023/04/21 01:26:02;;;;;;;11.60;8.00;;;;;;;13.52;89.76;99356.91;5034208;28;20036;-68
2023/04/21 01:28:27;;;;;;;10.25;8.02;;;;;;;13.61;88.72;99351.31;5036666;28;20040;-68
2023/04/21 01:30:53;;;;;;;8.88;7.15;;;;;;;13.57;88.01;99357.19;5033682;28;20048;-68
2023/04/21 01:33:19;;;;;;;9.40;7.00;;;;;;;13.49;88.50;99350.13;5034496;28;20048;-68
2023/04/21 01:35:45;;;;;;;9.57;7.20;;;;;;;13.48;88.29;99350.31;5033192;28;20366;-68
2023/04/21 01:38:11;;;;;;;9.32;7.20;;;;;;;13.54;88.12;99344.28;5033122;28;20143;-68
2023/04/21 01:40:38;;;;;;;9.88;7.15;;;;;;;13.50;87.63;99343.81;5033831;28;20041;-68
2023/04/21 01:43:03;;;;;;;12.10;7.57;;;;;;;13.41;87.79;99344.94;5031893;28;20061;-68
2023/04/21 01:45:30;;;;;;;10.88;7.38;;;;;;;13.28;88.18;99347.47;5034878;28;20339;-68
2023/04/21 01:47:56;;;;;;;11.35;7.45;;;;;;;13.38;87.94;99343.50;5036871;28;20045;-68
2023/04/21 01:50:21;;;;;;;11.32;7.90;;;;;;;13.07;88.22;99351.72;5036444;28;20060;-68
2023/04/21 01:52:47;;;;;;;11.20;7.93;;;;;;;12.99;89.94;99357.16;5034442;28;20112;-68
2023/04/21 01:55:13;;;;;;;11.98;7.50;;;;;;;12.90;89.50;99354.78;5032215;28;20123;-68
2023/04/21 01:57:39;;;;;;;9.68;7.15;;;;;;;12.84;90.24;99355.53;5035015;28;20037;-68
2023/04/21 02:00:05;;;;;;;10.57;7.75;;;;;;;12.87;90.66;99357.81;5033520;28;20096;-68
2023/04/21 02:02:31;;;;;;;10.52;6.95;;;;;;;12.89;90.54;99363.78;5033995;28;20072;-68
2023/04/21 02:04:57;;;;;;;8.35;6.95;;;;;;;12.82;90.88;99370.84;5033713;28;20049;-68
2023/04/21 02:07:22;;;;;;;11.82;7.10;;;;;;;12.85;90.17;99367.81;5035115;28;20052;-68
2023/04/21 02:09:48;;;;;;;9.02;6.20;;;;;;;12.65;90.42;99371.03;5032234;28;20060;-68
2023/04/21 02:12:13;;;;;;;9.13;6.93;;;;;;;12.51;90.89;99365.72;5034283;28;20057;-68
2023/04/21 02:14:39;;;;;;;7.82;6.30;;;;;;;12.68;90.97;99369.84;5032247;28;20049;-68
2023/04/21 02:17:04;;;;;;;8.15;6.70;;;;;;;12.77;89.01;99364.25;5031928;28;20046;-68
2023/04/21 02:19:30;;;;;;;9.35;6.78;;;;;;;12.77;88.24;99358.94;5033693;28;20053;-68
2023/04/21 02:21:55;;;;;;;10.80;6.57;;;;;;;12.71;88.08;99367.66;5033732;28;20037;-68
2023/04/21 02:24:21;;;;;;;9.02;6.85;;;;;;;12.71;88.89;99359.69;5035103;28;20434;-68
2023/04/21 02:26:47;;;;;;;9.15;6.28;;;;;;;12.79;88.14;99353.44;5033532;28;20044;-68
2023/04/21 02:29:12;;;;;;;10.18;6.65;;;;;;;12.58;88.34;99340.91;5033981;28;20041;-68
2023/04/21 02:31:38;;;;;;;8.68;6.45;;;;;;;12.62;88.22;99352.00;5032643;28;20045;-68
2023/04/21 02:34:04;;;;;;;8.75;6.45;;;;;;;12.45;89.14;99348.66;5033535;28;20072;-68
2023/04/21 02:36:30;;;;;;;10.30;7.18;;;;;;;12.45;89.18;99352.16;5033385;28;20355;-68
2023/04/21 02:38:56;;;;;;;8.40;6.78;;;;;;;12.51;88.47;99352.47;5034569;28;20044;-68
2023/04/21 02:41:22;;;;;;;8.43;7.18;;;;;;;12.63;88.21;99343.00;5031602;28;20037;-68
2023/04/21 02:43:48;;;;;;;9.68;8.20;;;;;;;12.71;87.18;99353.53;5034030;28;20045;-68
2023/04/21 02:46:13;;;;;;;10.40;7.68;;;;;;;12.71;87.59;99338.44;5032244;28;20060;-68
2023/04/21 02:48:39;;;;;;;9.30;7.45;;;;;;;12.75;87.23;99346.84;5034732;28;20088;-68
2023/04/21 02:51:09;;;;;;;10.43;7.47;;;;;;;12.67;87.34;99347.78;5032178;28;20335;-68
2023/04/21 02:53:36;;;;;;;10.40;8.23;;;;;;;12.62;87.63;99349.34;5032178;28;20038;-68
2023/04/21 02:56:03;;;;;;;12.73;7.68;;;;;;;12.67;87.32;99349.59;5033186;28;20071;-68
2023/04/21 02:58:29;;;;;;;10.75;7.40;;;;;;;12.58;87.25;99340.91;5032539;28;20092;-68
2023/04/21 03:00:55;;;;;;;12.07;7.72;;;;;;;12.63;87.44;99353.63;5031128;28;20304;-68
2023/04/21 03:03:21;;;;;;;10.27;7.85;;;;;;;12.69;86.70;99353.72;5031452;28;20395;-68
2023/04/21 03:05:47;;;;;;;11.15;7.43;;;;;;;12.73;85.90;99367.47;5031701;28;20021;-68
2023/04/21 03:08:12;;;;;;;9.88;8.18;;;;;;;12.14;88.39;99359.47;5032018;28;20045;-68
2023/04/21 03:10:38;;;;;;;13.43;8.63;;;;;;;12.20;89.79;99361.38;5034151;28;20041;-65
2023/04/21 03:13:04;;;;;;;12.05;8.82;;;;;;;12.25;89.42;99360.84;5032285;28;20045;-68
2023/04/21 03:15:29;;;;;;;10.70;8.55;;;;;;;12.06;88.92;99370.16;5033200;28;20239;-68
2023/04/21 03:17:55;;;;;;;9.75;7.40;;;;;;;12.22;87.90;99367.34;5028613;28;20045;-65
2023/04/21 03:20:20;;;;;;;13.50;8.63;;;;;;;12.38;86.76;99374.31;5030362;28;20216;-65
2023/04/21 03:22:46;;;;;;;10.05;8.15;;;;;;;12.49;85.88;99370.41;5028993;28;20054;-67
2023/04/21 03:25:12;;;;;;;11.90;8.15;;;;;;;12.52;85.38;99378.84;5030491;28;20033;-67
2023/04/21 03:27:37;;;;;;;9.07;7.32;;;;;;;12.58;83.78;99371.97;5033031;28;20208;-68
2023/04/21 03:30:04;;;;;;;10.10;7.38;;;;;;;12.61;83.17;99368.94;5029547;28;20034;-66
2023/04/21 03:32:29;;;;;;;10.70;8.05;;;;;;;12.66;82.86;99378.00;5031974;28;20030;-65
2023/04/21 03:34:55;;;;;;;11.10;7.95;;;;;;;12.67;82.15;99376.16;5030605;28;20327;-68
2023/04/21 03:37:20;;;;;;;9.57;7.50;;;;;;;12.67;81.86;99384.13;5032502;28;20041;-68
2023/04/21 03:39:46;;;;;;;8.77;7.35;;;;;;;12.68;80.71;99383.13;5031430;28;20064;-66
2023/04/21 03:42:11;;;;;;;12.82;10.35;;;;;;;12.59;81.82;99373.59;5031757;28;20036;-68
2023/04/21 03:44:37;;;;;;;11.27;9.18;;;;;;;12.57;82.10;99373.78;5030451;28;20088;-68
2023/04/21 03:47:03;;;;;;;11.25;8.23;;;;;;;12.47;82.32;99382.00;5030663;28;20033;-66
2023/04/21 03:49:29;;;;;;;11.88;8.77;;;;;;;12.39;83.14;99382.09;5032176;28;20042;-65
2023/04/21 03:51:54;;;;;;;12.77;8.40;;;;;;;12.37;83.85;99377.97;5031399;28;20030;-65
2023/04/21 03:54:20;;;;;;;11.05;8.05;;;;;;;12.44;83.77;99384.19;5032394;28;20049;-68
2023/04/21 03:56:45;;;;;;;12.80;8.18;;;;;;;12.54;83.24;99390.09;5031184;28;20109;-68
2023/04/21 03:59:11;;;;;;;11.70;8.65;;;;;;;12.59;80.83;99390.38;5030378;28;20401;-68
2023/04/21 04:01:36;;;;;;;14.02;9.23;;;;;;;12.66;80.98;99382.50;5028911;28;20128;-67
2023/04/21 04:04:02;;;;;;;12.25;8.85;;;;;;;12.66;80.30;99374.53;5030702;28;20037;-65
2023/04/21 04:06:27;;;;;;;12.50;8.68;;;;;;;12.61;81.25;99385.69;5030401;28;20041;-65
2023/04/21 04:08:53;;;;;;;13.93;8.40;;;;;;;12.61;82.39;99383.03;5032125;28;20358;-65
2023/04/21 04:11:19;;;;;;;17.35;8.73;;;;;;;12.69;82.18;99384.78;5030513;28;20177;-65
2023/04/21 04:13:44;;;;;;;12.52;9.32;;;;;;;12.78;81.32;99395.13;5032002;28;20088;-65
2023/04/21 04:16:10;;;;;;;9.40;7.70;;;;;;;12.87;80.86;99387.88;5030295;28;20064;-65
2023/04/21 04:18:35;;;;;;;9.80;7.75;;;;;;;12.87;80.51;99387.88;5033825;28;20041;-65
2023/04/21 04:21:06;;;;;;;11.93;8.52;;;;;;;12.89;80.44;99391.16;5031213;28;20037;-65
2023/04/21 04:23:32;;;;;;;10.63;8.43;;;;;;;12.95;80.64;99397.56;5031439;28;20275;-65
2023/04/21 04:25:58;;;;;;;11.90;7.95;;;;;;;13.01;80.96;99404.81;5031124;28;20148;-65
2023/04/21 04:28:23;;;;;;;9.70;7.40;;;;;;;12.92;81.31;99393.44;5030837;28;20049;-67
2023/04/21 04:30:49;;;;;;;12.10;7.90;;;;;;;12.84;82.39;99398.88;5031553;28;20052;-66
2023/04/21 04:33:15;;;;;;;11.48;7.68;;;;;;;12.97;82.26;99408.84;5026258;28;20038;-66
2023/04/21 04:35:40;;;;;;;13.25;9.63;;;;;;;12.90;83.55;99407.94;5030493;28;20117;-66
2023/04/21 04:38:06;;;;;;;12.65;8.98;;;;;;;12.84;84.35;99421.97;5034813;28;20127;-66
2023/04/21 04:40:32;;;;;;;15.40;9.55;;;;;;;12.51;85.71;99419.66;5035816;28;20041;-65
2023/04/21 04:42:58;;;;;;;13.20;8.85;;;;;;;12.40;86.55;99420.09;5021313;28;20034;-66
2023/04/21 04:45:27;;;;;;;13.48;9.18;;;;;;;12.40;87.60;99420.91;5018198;28;20072;-65
2023/04/21 04:47:52;;;;;;;14.75;9.60;;;;;;;12.49;87.82;99413.72;5018317;28;20046;-65
2023/04/21 04:50:18;;;;;;;12.10;8.82;;;;;;;12.41;88.80;99421.75;5019071;28;20084;-68
2023/04/21 04:52:45;;;;;;;11.27;8.32;;;;;;;12.66;87.23;99411.72;5017410;28;20281;-65
2023/04/21 04:55:11;;;;;;;13.63;7.85;;;;;;;12.79;85.53;99419.84;5017551;28;20073;-65
2023/04/21 04:57:37;;;;;;;9.77;7.40;;;;;;;13.05;84.75;99414.88;5017869;28;20038;-68
2023/04/21 05:00:06;;;;;;;10.40;7.05;;;;;;;13.34;84.29;99422.00;5017120;28;20044;-68
2023/04/21 05:02:31;;;;;;;10.73;7.50;;;;;;;13.57;82.75;99423.69;5016460;28;20248;-65
2023/04/21 05:04:57;;;;;;;9.77;7.28;;;;;;;13.76;81.72;99423.06;5016279;28;20034;-68
2023/04/21 05:07:22;;;;;;;9.13;7.07;;;;;;;13.97;82.86;99409.75;5017881;28;20041;-68
2023/04/21 05:09:47;;;;;;;14.23;7.82;;;;;;;14.21;81.06;99413.00;5018078;28;20249;-68
2023/04/21 05:12:13;;;;;;;9.02;7.63;;;;;;;14.47;79.13;99420.41;5016702;28;20026;-68
2023/04/21 05:14:38;;;;;;;8.23;7.35;;;;;;;14.63;78.94;99415.63;5017104;28;20314;-68
2023/04/21 05:17:04;;;;;;;10.55;7.82;;;;;;;14.54;79.25;99423.94;5018745;28;20033;-68
2023/04/21 05:19:29;;;;;;;10.65;8.10;;;;;;;14.72;77.86;99420.78;5016231;28;20038;-68
2023/04/21 05:22:01;;;;;;;11.57;8.63;;;;;;;14.67;78.34;99419.53;5016572;28;20038;-68
2023/04/21 05:24:27;;;;;;;9.27;7.82;;;;;;;14.90;78.78;99408.56;5017768;28;20045;-68
2023/04/21 05:26:53;;;;;;;12.85;8.35;;;;;;;15.08;78.36;99407.22;5018751;28;20046;-68
2023/04/21 05:29:18;;;;;;;11.00;8.75;;;;;;;15.38;78.00;99407.72;5017248;28;20044;-68
2023/04/21 05:31:45;;;;;;;11.52;8.43;;;;;;;15.75;76.06;99414.44;5018082;28;20124;-66
2023/04/21 05:34:10;;;;;;;9.00;7.82;;;;;;;16.05;74.25;99405.00;5017891;28;20033;-66
2023/04/21 05:36:36;;;;;;;10.93;7.85;;;;;;;16.31;71.35;99409.50;5018098;28;20064;-66
2023/04/21 05:39:01;;;;;;;10.60;7.95;;;;;;;16.41;70.95;99403.75;5017469;28;20040;-66
2023/04/21 05:41:26;;;;;;;13.18;8.65;;;;;;;16.46;70.73;99406.63;5019673;28;20049;-66
2023/04/21 05:43:52;;;;;;;9.95;7.95;;;;;;;16.58;71.05;99399.59;5020307;28;20041;-66
2023/04/21 05:46:17;;;;;;;13.13;9.18;;;;;;;16.78;69.57;99395.09;5021449;28;20076;-66
2023/04/21 05:48:43;;;;;;;12.05;8.35;;;;;;;17.04;70.05;99396.03;5021694;28;20057;-68
2023/04/21 05:51:10;;;;;;;12.13;8.70;;;;;;;17.18;70.66;99397.59;5020788;28;20107;-68
2023/04/21 05:53:36;;;;;;;10.90;8.13;;;;;;;17.36;69.08;99392.34;5021076;28;20054;-68
2023/04/21 05:56:02;;;;;;;10.13;7.38;;;;;;;17.46;65.94;99392.72;5020231;28;20046;-68
2023/04/21 05:58:27;;;;;;;11.38;7.20;;;;;;;17.49;64.60;99388.78;5019554;28;20084;-68
2023/04/21 06:00:53;;;;;;;9.85;6.32;;;;;;;17.55;62.70;99388.75;5019877;28;20050;-68
2023/04/21 06:03:18;;;;;;;9.23;6.70;;;;;;;17.64;62.63;99385.81;5020809;28;20048;-68
2023/04/21 06:05:44;;;;;;;9.85;6.38;;;;;;;17.56;60.12;99386.88;5021411;28;20040;-68
2023/04/21 06:08:09;;;;;;;7.10;6.38;;;;;;;17.59;59.97;99389.13;5020346;28;20046;-68
2023/04/21 06:10:35;;;;;;;9.23;6.15;;;;;;;17.73;59.68;99387.25;5020001;28;20030;-68
2023/04/21 06:13:00;;;;;;;11.00;6.57;;;;;;;17.73;59.29;99387.25;5020823;28;20125;-66
2023/04/21 06:15:25;;;;;;;8.85;6.47;;;;;;;17.88;59.68;99381.56;5020777;28;20052;-68
2023/04/21 06:17:54;;;;;;;7.80;6.15;;;;;;;17.99;58.24;99376.31;5020978;28;20053;-68
2023/04/21 06:20:20;;;;;;;6.75;5.82;;;;;;;17.89;56.14;99373.31;5019287;28;20038;-68
2023/04/21 06:22:45;;;;;;;9.02;6.57;;;;;;;17.96;56.30;99375.94;5018356;28;20052;-68
2023/04/21 06:25:10;;;;;;;9.38;6.18;;;;;;;18.02;55.63;99369.72;5019032;28;20041;-68
2023/04/21 06:27:36;;;;;;;7.68;6.15;;;;;;;18.17;55.64;99380.91;5019688;28;20237;-66
2023/04/21 06:30:01;;;;;;;7.28;5.97;;;;;;;18.27;54.89;99369.69;5019329;28;20038;-68
2023/04/21 06:32:27;;;;;;;9.45;6.18;;;;;;;18.26;54.64;99370.72;5019596;28;20064;-68
2023/04/21 06:34:52;;;;;;;8.55;6.40;;;;;;;18.39;53.60;99374.09;5018487;28;20030;-67
2023/04/21 06:37:17;;;;;;;9.25;6.90;;;;;;;18.47;55.07;99360.41;5019684;28;20037;-68
2023/04/21 06:39:43;;;;;;;8.23;6.13;;;;;;;18.50;54.18;99370.69;5020520;28;20232;-66
2023/04/21 06:42:08;;;;;;;10.07;7.00;;;;;;;18.66;54.11;99365.81;5020515;28;20041;-68
2023/04/21 06:44:34;;;;;;;8.07;6.00;;;;;;;18.68;53.56;99372.59;5030277;28;20328;-68
2023/04/21 06:46:59;;;;;;;10.27;6.20;;;;;;;19.04;54.20;99374.47;5032530;28;20040;-67
2023/04/21 06:49:25;;;;;;;9.13;6.45;;;;;;;19.29;52.58;99376.19;5032668;28;20170;-68
2023/04/21 06:51:50;;;;;;;9.90;6.05;;;;;;;19.25;50.55;99372.34;5032991;28;20041;-68
2023/04/21 06:54:15;;;;;;;7.72;5.90;;;;;;;19.33;52.43;99370.16;5030816;28;20063;-66
2023/04/21 06:56:41;;;;;;;6.60;5.43;;;;;;;19.32;50.77;99370.38;5032413;28;20067;-66
2023/04/21 06:59:08;;;;;;;7.57;5.60;;;;;;;19.30;50.50;99377.84;5031659;28;20026;-68
2023/04/21 07:01:34;;;;;;;6.70;6.00;;;;;;;19.17;51.74;99375.34;5030866;28;20038;-66
2023/04/21 07:04:00;;;;;;;9.73;5.60;;;;;;;19.14;50.74;99372.06;5033017;28;20374;-68
2023/04/21 07:06:25;;;;;;;10.07;6.18;;;;;;;19.28;50.49;99378.06;5031884;28;20037;-68
2023/04/21 07:08:51;;;;;;;6.80;5.95;;;;;;;19.44;50.33;99377.44;5033123;28;20044;-66
2023/04/21 07:11:16;;;;;;;7.25;6.05;;;;;;;19.40;49.91;99362.81;5031100;28;20033;-68
2023/04/21 07:13:41;;;;;;;7.15;5.63;;;;;;;19.52;50.65;99360.19;5030686;28;20360;-66
2023/04/21 07:16:07;;;;;;;7.35;5.55;;;;;;;19.66;49.07;99366.19;5031371;28;20045;-68
2023/04/21 07:18:33;;;;;;;9.25;6.28;;;;;;;19.69;50.29;99368.41;5031435;28;20041;-68
2023/04/21 07:20:59;;;;;;;8.75;6.68;;;;;;;20.00;51.85;99365.47;5031244;28;20441;-66
2023/04/21 07:23:25;;;;;;;8.25;6.35;;;;;;;20.24;50.68;99368.97;5031479;28;20089;-68
2023/04/21 07:25:50;;;;;;;7.57;6.75;;;;;;;20.30;48.42;99364.53;5032886;28;20070;-67
2023/04/21 07:28:16;;;;;;;9.50;6.65;;;;;;;20.30;47.94;99369.91;5031519;28;20056;-68
2023/04/21 07:30:41;;;;;;;7.80;6.15;;;;;;;20.24;48.50;99366.28;5032746;28;20037;-67
2023/04/21 07:33:07;;;;;;;7.95;5.97;;;;;;;20.45;49.71;99359.53;5031011;28;20049;-68
2023/04/21 07:35:33;;;;;;;6.65;5.82;;;;;;;20.54;47.01;99358.13;5029155;28;20057;-68
2023/04/21 07:37:58;;;;;;;8.52;6.60;;;;;;;20.50;47.90;99351.56;5030726;28;20056;-68
2023/04/21 07:40:24;;;;;;;8.13;6.22;;;;;;;20.63;49.41;99350.50;5031128;28;20037;-67
2023/04/21 07:42:49;;;;;;;8.82;6.15;;;;;;;20.69;46.83;99349.56;5029519;28;20029;-69
2023/04/21 07:45:15;;;;;;;6.95;6.30;;;;;;;20.79;47.38;99360.53;5030370;28;20041;-68
2023/04/21 07:47:40;;;;;;;7.45;6.40;;;;;;;20.77;47.84;99349.19;5032006;28;20041;-66
2023/04/21 07:50:06;;;;;;;7.72;6.13;;;;;;;21.00;46.62;99357.22;5032496;28;20044;-66
2023/04/21 07:52:32;;;;;;;7.15;5.70;;;;;;;20.98;44.67;99359.31;5032319;28;20227;-68
2023/04/21 07:54:57;;;;;;;14.43;6.82;;;;;;;21.02;43.60;99363.19;5032887;28;20055;-68
2023/04/21 07:57:23;;;;;;;7.60;5.57;;;;;;;20.99;43.56;99357.47;5029790;28;20219;-67
2023/04/21 07:59:49;;;;;;;6.35;5.45;;;;;;;20.92;42.50;99357.59;5032561;28;20365;-68
2023/04/21 08:02:14;;;;;;;7.38;5.43;;;;;;;21.02;42.42;99351.59;5030667;28;20037;-66
2023/04/21 08:04:40;;;;;;;7.53;5.32;;;;;;;21.16;42.88;99355.63;5031430;28;20260;-67
2023/04/21 08:07:05;;;;;;;6.70;4.88;;;;;;;21.27;41.77;99348.59;5030832;28;20083;-68
2023/04/21 08:09:31;;;;;;;7.03;5.13;;;;;;;21.37;42.44;99350.66;5029776;28;20076;-68
2023/04/21 08:11:56;;;;;;;5.95;5.20;;;;;;;21.60;41.19;99358.63;5031843;28;20414;-67
2023/04/21 08:14:22;;;;;;;6.03;5.45;;;;;;;21.63;42.21;99348.16;5031151;28;20041;-68
2023/04/21 08:16:47;;;;;;;7.13;5.30;;;;;;;21.81;42.31;99347.13;5031606;28;20064;-66
2023/04/21 08:19:13;;;;;;;7.05;5.30;;;;;;;21.84;40.10;99346.63;5030695;28;20079;-66
2023/04/21 08:21:38;;;;;;;12.20;5.70;;;;;;;21.82;40.50;99347.94;5031453;28;20048;-66
2023/04/21 08:24:04;;;;;;;8.27;5.53;;;;;;;21.84;41.71;99340.41;5030945;28;20041;-66
2023/04/21 08:26:32;;;;;;;7.60;5.53;;;;;;;22.02;41.51;99348.28;5031958;28;20071;-68
2023/04/21 08:28:58;;;;;;;5.40;4.68;;;;;;;21.69;41.01;99343.69;5030186;28;20041;-68
2023/04/21 08:31:24;;;;;;;8.27;5.93;;;;;;;21.76;40.60;99352.44;5031635;28;20029;-68
2023/04/21 08:33:49;;;;;;;6.72;5.25;;;;;;;21.88;42.39;99344.28;5031092;28;20528;-68
2023/04/21 08:36:15;;;;;;;5.53;5.03;;;;;;;21.99;41.54;99346.91;5031017;28;20212;-66
2023/04/21 08:38:43;;;;;;;7.55;5.22;;;;;;;22.06;40.43;99337.88;5031065;28;20036;-68
2023/04/21 08:41:09;;;;;;;6.32;5.72;;;;;;;22.16;41.35;99338.84;5031040;28;20056;-68
2023/04/21 08:43:35;;;;;;;6.50;5.90;;;;;;;22.25;41.70;99339.22;5031531;28;20327;-69
2023/04/21 08:46:11;;;;;;;8.65;5.28;;;;;;;22.28;40.84;99341.44;5030822;28;20033;-66
2023/04/21 08:48:37;;;;;;;5.57;5.07;;;;;;;22.25;40.29;99339.22;5027629;28;20202;-68
2023/04/21 08:51:05;;;;;;;6.32;5.47;;;;;;;22.19;39.90;99332.94;5029382;28;20056;-66
2023/04/21 08:53:31;;;;;;;5.78;4.97;;;;;;;22.16;39.06;99335.31;5028899;28;20072;-68
2023/04/21 08:55:56;;;;;;;5.00;4.18;;;;;;;22.11;39.68;99338.75;5031041;28;20295;-66
2023/04/21 08:58:22;;;;;;;8.68;5.10;;;;;;;22.17;40.25;99335.06;5031192;28;20349;-66
2023/04/21 09:00:49;;;;;;;7.20;5.57;;;;;;;22.23;41.75;99327.88;5029399;28;20030;-68
2023/04/21 09:03:22;;;;;;;6.07;5.00;;;;;;;22.28;40.35;99328.75;5029708;28;20041;-68
2023/04/21 09:05:59;;;;;;;5.50;4.65;;;;;;;22.33;39.03;99330.72;5031472;28;20034;-69
2023/04/21 09:08:26;;;;;;;5.47;4.13;;;;;;;22.25;38.04;99323.84;5031004;28;20266;-69
2023/04/21 09:10:53;;;;;;;5.20;4.43;;;;;;;22.13;39.35;99308.84;5030647;28;20416;-69
2023/04/21 09:13:19;;;;;;;5.28;4.35;;;;;;;22.24;39.27;99318.72;5030093;28;20061;-69
2023/04/21 09:15:47;;;;;;;7.53;4.60;;;;;;;22.31;38.81;99316.66;5030403;28;20120;-69
2023/04/21 09:18:15;;;;;;;5.63;4.75;;;;;;;22.42;39.89;99315.72;5031722;28;20048;-69
2023/04/21 09:20:42;;;;;;;11.25;5.22;;;;;;;22.44;39.39;99312.78;5033911;28;20041;-69
2023/04/21 09:23:09;;;;;;;5.07;4.57;;;;;;;22.35;39.76;99307.00;5034913;28;20083;-69
2023/04/21 09:25:38;;;;;;;6.18;4.60;;;;;;;22.13;38.75;99300.75;5034272;28;20026;-68
2023/04/21 09:28:07;;;;;;;4.43;3.88;;;;;;;22.01;36.54;99300.00;5034396;28;20453;-68
2023/04/21 09:30:37;;;;;;;5.65;4.43;;;;;;;21.88;36.82;99295.78;5034100;28;20037;-66
2023/04/21 09:33:03;;;;;;;5.60;4.70;;;;;;;21.91;39.83;99300.69;5034058;28;20343;-66
2023/04/21 09:35:32;;;;;;;9.57;4.53;;;;;;;22.06;39.35;99294.72;5033649;28;20037;-68
2023/04/21 09:38:00;;;;;;;5.38;4.40;;;;;;;22.14;41.49;99287.03;5032342;28;20040;-68
2023/04/21 09:40:27;;;;;;;4.32;3.92;;;;;;;22.28;38.97;99295.56;5033102;28;20373;-64
2023/04/21 09:42:52;;;;;;;4.35;3.92;;;;;;;22.25;36.82;99296.06;5032325;28;20359;-66
2023/04/21 09:45:18;;;;;;;4.53;4.13;;;;;;;22.10;39.03;99285.06;5033227;28;20040;-66
2023/04/21 09:47:50;;;;;;;5.57;4.45;;;;;;;21.99;38.78;99260.63;5032599;28;20057;-65
2023/04/21 09:50:16;;;;;;;4.57;4.10;;;;;;;22.18;39.17;99281.94;5032559;28;20033;-66
2023/04/21 09:52:43;;;;;;;5.50;4.07;;;;;;;22.25;38.56;99287.97;5030353;28;20087;-64
2023/04/21 09:55:12;;;;;;;4.75;4.13;;;;;;;22.28;39.23;99288.31;5033146;28;20311;-66
2023/04/21 09:57:40;;;;;;;4.15;3.85;;;;;;;22.17;37.00;99275.75;5033767;28;20041;-64
2023/04/21 10:00:08;;;;;;;4.22;3.65;;;;;;;22.24;37.45;99281.78;5031673;28;20053;-64
2023/04/21 10:02:35;;;;;;;5.32;4.07;;;;;;;22.14;38.02;99270.84;5032380;28;20131;-64
2023/04/21 10:05:03;;;;;;;4.38;3.97;;;;;;;22.23;37.59;99268.53;5030101;28;20025;-65
2023/04/21 10:07:29;;;;;;;4.32;3.90;;;;;;;22.30;36.83;99269.16;5033332;28;20065;-66
2023/04/21 10:09:55;;;;;;;3.70;3.30;;;;;;;22.32;37.24;99261.66;5030304;28;20037;-66
2023/04/21 10:12:22;;;;;;;4.32;3.58;;;;;;;22.35;37.60;99263.84;5032840;28;20199;-64
2023/04/21 10:14:54;;;;;;;4.93;3.88;;;;;;;22.42;38.41;99261.78;5032710;28;20056;-66
2023/04/21 10:17:25;;;;;;;5.25;4.30;;;;;;;22.46;37.63;99262.91;5034751;28;20437;-66
2023/04/21 10:19:53;;;;;;;5.63;3.65;;;;;;;22.40;36.07;99255.81;5032301;28;20138;-63
2023/04/21 10:22:34;;;;;;;6.80;5.80;;;;;;;22.45;37.53;99255.06;5033489;28;20037;-66
2023/04/21 10:25:01;;;;;;;3.95;3.50;;;;;;;22.50;35.82;99250.53;5031685;28;20251;-65
2023/04/21 10:27:33;;;;;;;4.07;3.38;;;;;;;22.48;36.59;99251.88;5031603;28;20044;-64
2023/04/21 10:29:59;;;;;;;3.78;3.42;;;;;;;22.52;37.97;99245.72;5031423;28;20029;-63
2023/04/21 10:32:41;;;;;;;5.65;3.20;;;;;;;22.53;36.00;99250.03;5033179;28;20041;-66
2023/04/21 10:35:10;;;;;;;5.10;3.30;;;;;;;22.44;36.25;99239.94;5031490;28;20037;-66
2023/04/21 10:37:36;;;;;;;4.40;3.78;;;;;;;22.57;37.53;99244.97;5030565;28;20087;-66
2023/04/21 10:40:06;;;;;;;3.78;3.33;;;;;;;22.54;36.63;99235.47;5032619;28;20040;-64
2023/04/21 10:42:34;;;;;;;3.50;3.20;;;;;;;22.65;38.18;99246.38;5031694;28;20033;-66
2023/04/21 10:45:01;;;;;;;5.00;3.55;;;;;;;22.63;36.16;99242.06;5032506;28;20041;-66
2023/04/21 10:47:40;;;;;;;4.25;3.63;;;;;;;22.74;38.35;99250.28;5029951;28;20112;-64
2023/04/21 10:50:19;;;;;;;4.93;3.67;;;;;;;22.48;37.16;99255.38;5032439;28;20183;-66
2023/04/21 10:53:11;;;;;;;3.35;2.97;;;;;;;22.01;37.94;99238.81;5029974;28;20279;-64
2023/04/21 10:55:37;;;;;;;2.75;2.53;;;;;;;21.49;36.91;99246.38;5030946;28;20133;-68
2023/04/21 10:58:10;;;;;;;8.30;3.10;;;;;;;21.24;37.01;99252.97;5031686;28;20026;-67
2023/04/21 11:00:38;;;;;;;4.32;2.83;;;;;;;21.01;38.84;99253.88;5030119;28;20239;-66
2023/04/21 11:03:06;;;;;;;3.05;2.55;;;;;;;20.89;38.17;99258.50;5030872;28;20057;-68
2023/04/21 11:05:39;;;;;;;5.53;2.88;;;;;;;20.72;41.96;99258.41;5030284;28;20029;-68
2023/04/21 11:08:11;;;;;;;5.03;4.30;;;;;;;20.64;53.06;99260.66;5031046;28;20053;-67
2023/04/21 11:10:47;;;;;;;4.30;3.28;;;;;;;20.69;58.52;99255.38;5028833;28;20026;-68
2023/04/21 11:13:13;;;;;;;4.22;2.83;;;;;;;20.65;49.38;99255.06;5029261;28;20045;-68
2023/04/21 11:15:39;;;;;;;3.17;2.90;;;;;;;20.57;50.91;99247.34;5035023;28;20061;-66
2023/04/21 11:18:07;;;;;;;3.53;2.67;;;;;;;20.70;42.43;99247.06;5037107;28;20234;-68
2023/04/21 11:20:33;;;;;;;4.05;2.90;;;;;;;20.67;45.89;99247.56;5036104;28;20033;-68
2023/04/21 11:22:58;;;;;;;3.40;3.10;;;;;;;20.79;45.47;99242.13;5035418;28;20041;-67
2023/04/21 11:25:24;;;;;;;5.47;3.10;;;;;;;20.85;44.70;99245.75;5036787;28;20239;-67